Time;durP1;ratioP1;P1;durP2;ratioP2;P2;SDS_P1;SDS_P2;PMS_P1;PMS_P2;Temp;Humidity;BMP_temperature;BMP_pressure;BME280_temperature;BME280_humidity;BME280_pressure;Samples;Min_cycle;Max_cycle;Signal;HPM_P1;HPM_P2
2022/11/30 00:01:47;;;;;;;68.57;46.37;;;3.90;99.90;;;;;;5074794;28;20565;-52
2022/11/30 00:04:15;;;;;;;70.23;42.90;;;3.90;99.90;;;;;;5086350;28;20479;-52
2022/11/30 00:06:42;;;;;;;77.57;46.83;;;3.90;99.90;;;;;;5075902;28;20841;-52
2022/11/30 00:09:08;;;;;;;68.87;44.33;;;3.90;99.90;;;;;;5071694;28;20938;-51
2022/11/30 00:11:35;;;;;;;68.47;43.30;;;3.90;99.90;;;;;;5070886;28;20464;-52
2022/11/30 00:14:02;;;;;;;69.93;44.70;;;3.90;99.90;;;;;;5082720;28;20533;-52
2022/11/30 00:16:28;;;;;;;71.57;45.83;;;3.90;99.90;;;;;;5064575;28;20491;-50
2022/11/30 00:18:55;;;;;;;73.40;45.17;;;3.90;99.90;;;;;;5073097;28;21560;-52
2022/11/30 00:21:23;;;;;;;69.20;45.57;;;3.90;99.90;;;;;;5078251;28;20460;-52
2022/11/30 00:23:49;;;;;;;72.43;46.17;;;3.90;99.90;;;;;;5081394;28;20483;-51
2022/11/30 00:26:18;;;;;;;70.50;44.40;;;3.90;99.90;;;;;;5065753;28;20491;-51
2022/11/30 00:28:46;;;;;;;74.17;46.80;;;3.90;99.90;;;;;;5070914;28;20514;-52
2022/11/30 00:31:14;;;;;;;70.40;45.33;;;3.90;99.90;;;;;;5067553;28;20465;-51
2022/11/30 00:33:41;;;;;;;67.00;45.43;;;3.80;99.90;;;;;;5086234;28;20495;-52
2022/11/30 00:36:11;;;;;;;70.73;45.53;;;3.90;99.90;;;;;;5062800;28;20468;-52
2022/11/30 00:38:39;;;;;;;72.30;47.47;;;3.90;99.90;;;;;;5071255;28;20970;-52
2022/11/30 00:41:06;;;;;;;72.30;45.80;;;3.90;99.90;;;;;;5079666;28;20456;-52
2022/11/30 00:43:33;;;;;;;71.40;45.40;;;3.90;99.90;;;;;;5069721;28;20538;-51
2022/11/30 00:46:00;;;;;;;78.97;46.60;;;3.90;99.90;;;;;;5067730;28;20466;-52
2022/11/30 00:48:26;;;;;;;70.77;47.10;;;3.90;99.90;;;;;;5087430;28;20444;-52
2022/11/30 00:50:53;;;;;;;73.83;47.50;;;3.90;99.90;;;;;;5076501;28;20461;-52
2022/11/30 00:53:20;;;;;;;71.50;43.83;;;3.90;99.90;;;;;;5084209;28;21096;-51
2022/11/30 00:55:49;;;;;;;79.17;48.00;;;3.90;99.90;;;;;;5074766;28;20461;-52
2022/11/30 00:58:16;;;;;;;74.10;46.27;;;3.90;99.90;;;;;;5079921;28;20457;-52
2022/11/30 01:00:43;;;;;;;66.10;43.63;;;3.80;99.90;;;;;;5068086;28;20468;-50
2022/11/30 01:03:10;;;;;;;67.83;46.13;;;3.80;99.90;;;;;;5061482;28;20484;-52
2022/11/30 01:05:37;;;;;;;74.83;45.80;;;3.80;99.90;;;;;;5071130;28;20469;-52
2022/11/30 01:08:06;;;;;;;75.27;48.07;;;3.80;99.90;;;;;;5074703;28;20519;-51
2022/11/30 01:10:33;;;;;;;72.07;46.33;;;3.90;99.90;;;;;;5076201;28;20469;-50
2022/11/30 01:13:01;;;;;;;78.67;45.33;;;3.90;99.90;;;;;;5059253;28;20495;-52
2022/11/30 01:15:28;;;;;;;71.23;47.03;;;3.90;99.90;;;;;;5074665;28;20572;-54
2022/11/30 01:17:54;;;;;;;71.20;46.27;;;3.80;99.90;;;;;;5070409;28;20489;-52
2022/11/30 01:20:21;;;;;;;65.80;43.00;;;3.80;99.90;;;;;;5072936;28;20491;-52
2022/11/30 01:22:48;;;;;;;71.10;45.60;;;3.80;99.90;;;;;;5063797;28;20482;-51
2022/11/30 01:25:15;;;;;;;73.63;46.77;;;3.80;99.90;;;;;;5072416;28;20541;-52
2022/11/30 01:27:41;;;;;;;76.17;46.10;;;3.80;99.90;;;;;;5085081;28;20465;-52
2022/11/30 01:30:10;;;;;;;68.80;46.90;;;3.80;99.90;;;;;;5064736;28;20514;-52
2022/11/30 01:32:37;;;;;;;84.83;48.37;;;3.80;99.90;;;;;;5058911;28;20588;-51
2022/11/30 01:35:04;;;;;;;72.17;42.50;;;3.80;99.90;;;;;;5071899;28;20534;-53
2022/11/30 01:37:30;;;;;;;70.60;46.90;;;3.80;99.90;;;;;;5071262;28;20495;-51
2022/11/30 01:39:57;;;;;;;75.73;47.00;;;3.80;99.90;;;;;;5071773;28;20550;-52
2022/11/30 01:42:24;;;;;;;71.33;47.13;;;3.80;99.90;;;;;;5071648;28;20465;-52
2022/11/30 01:44:53;;;;;;;75.53;46.03;;;3.80;99.90;;;;;;5074792;28;20508;-52
2022/11/30 01:47:27;;;;;;;81.67;47.53;;;3.70;99.90;;;;;;5069822;28;20465;-52
2022/11/30 01:49:58;;;;;;;74.67;47.80;;;3.80;99.90;;;;;;5077976;28;20457;-52
2022/11/30 01:52:29;;;;;;;81.17;47.33;;;3.80;99.90;;;;;;5072882;28;20885;-52
2022/11/30 01:55:01;;;;;;;82.23;48.87;;;3.70;99.90;;;;;;5070013;28;20542;-51
2022/11/30 01:57:31;;;;;;;89.37;45.80;;;3.70;99.90;;;;;;5071902;28;20436;-51
2022/11/30 02:00:01;;;;;;;77.60;47.83;;;3.80;99.90;;;;;;5054358;28;20519;-51
2022/11/30 02:02:58;;;;;;;67.90;46.67;;;3.80;99.90;;;;;;5060037;28;20518;-51
2022/11/30 02:05:26;;;;;;;78.83;46.90;;;3.80;99.90;;;;;;5068290;28;20526;-51
2022/11/30 02:07:53;;;;;;;72.97;46.13;;;3.80;99.90;;;;;;5078599;28;20845;-52
2022/11/30 02:10:25;;;;;;;79.30;49.07;;;3.70;99.90;;;;;;5069550;28;20465;-51
2022/11/30 02:13:14;;;;;;;74.60;47.30;;;3.60;99.90;;;;;;5061105;28;20489;-51
2022/11/30 02:15:52;;;;;;;78.20;47.27;;;3.70;99.90;;;;;;5070680;28;20491;-52
2022/11/30 02:18:26;;;;;;;73.80;47.43;;;3.70;99.90;;;;;;5060685;28;20534;-52
2022/11/30 02:21:04;;;;;;;74.83;46.63;;;3.70;99.90;;;;;;5074833;28;20463;-51
2022/11/30 02:23:54;;;;;;;73.10;46.73;;;3.70;99.90;;;;;;5065472;28;20522;-51
2022/11/30 02:26:42;;;;;;;72.83;46.60;;;3.70;99.90;;;;;;5063475;28;20461;-51
2022/11/30 02:29:16;;;;;;;63.10;43.13;;;3.70;99.90;;;;;;5062356;28;21010;-52
2022/11/30 02:31:49;;;;;;;73.07;47.57;;;3.60;99.90;;;;;;5067744;28;20461;-51
2022/11/30 02:34:17;;;;;;;77.63;48.67;;;3.60;99.90;;;;;;5068122;28;20485;-52
2022/11/30 02:36:45;;;;;;;82.20;49.37;;;3.70;99.90;;;;;;5071369;28;20460;-52
2022/11/30 02:39:12;;;;;;;83.33;48.60;;;3.60;99.90;;;;;;5072062;28;20954;-52
2022/11/30 02:41:40;;;;;;;76.73;46.97;;;3.60;99.90;;;;;;5069460;28;20881;-51
2022/11/30 02:44:10;;;;;;;73.83;46.00;;;3.60;99.90;;;;;;5065306;28;21204;-51
2022/11/30 02:46:53;;;;;;;79.17;48.63;;;3.60;99.90;;;;;;5067883;28;20534;-51
2022/11/30 02:49:27;;;;;;;68.70;45.00;;;3.60;99.90;;;;;;5072827;28;20532;-51
2022/11/30 02:51:55;;;;;;;77.13;49.40;;;3.60;99.90;;;;;;5068595;28;20456;-51
2022/11/30 02:54:22;;;;;;;76.90;48.10;;;3.60;99.90;;;;;;5069317;28;20484;-51
2022/11/30 02:56:48;;;;;;;67.77;45.17;;;3.60;99.90;;;;;;5075633;28;20514;-51
2022/11/30 02:59:15;;;;;;;70.00;44.10;;;3.60;99.90;;;;;;5063027;28;20460;-51
2022/11/30 03:01:44;;;;;;;78.10;49.83;;;3.50;99.90;;;;;;5066599;28;20465;-51
2022/11/30 03:04:10;;;;;;;77.63;49.20;;;3.60;99.90;;;;;;5054598;28;20485;-50
2022/11/30 03:06:37;;;;;;;72.70;46.30;;;3.60;99.90;;;;;;5069152;28;20465;-51
2022/11/30 03:09:04;;;;;;;73.23;47.77;;;3.60;99.90;;;;;;5066814;28;20456;-50
2022/11/30 03:11:30;;;;;;;75.57;47.20;;;3.60;99.90;;;;;;5068423;28;20450;-52
2022/11/30 03:13:57;;;;;;;70.77;45.10;;;3.60;99.90;;;;;;5070454;28;20484;-51
2022/11/30 03:16:24;;;;;;;77.33;48.80;;;3.60;99.90;;;;;;5075307;28;20468;-52
2022/11/30 03:18:51;;;;;;;80.13;47.90;;;3.60;99.90;;;;;;5074200;28;20534;-51
2022/11/30 03:21:18;;;;;;;73.17;46.47;;;3.60;99.90;;;;;;5067144;28;20514;-51
2022/11/30 03:23:45;;;;;;;76.60;48.43;;;3.60;99.90;;;;;;5061115;28;20868;-51
2022/11/30 03:26:11;;;;;;;78.57;46.87;;;3.60;99.90;;;;;;5076951;28;20510;-52
2022/11/30 03:28:38;;;;;;;74.20;47.03;;;3.50;99.90;;;;;;5071113;28;20530;-52
2022/11/30 03:31:05;;;;;;;77.87;48.80;;;3.60;99.90;;;;;;5081230;28;20457;-51
2022/11/30 03:33:32;;;;;;;72.47;45.60;;;3.50;99.90;;;;;;5084366;28;20484;-51
2022/11/30 03:36:02;;;;;;;71.73;46.70;;;3.60;99.90;;;;;;5092732;28;20440;-51
2022/11/30 03:38:29;;;;;;;72.30;45.10;;;3.50;99.90;;;;;;5072484;28;20469;-50
2022/11/30 03:41:02;;;;;;;78.93;47.57;;;3.60;99.90;;;;;;5075099;28;20518;-51
2022/11/30 03:43:29;;;;;;;73.83;46.07;;;3.60;99.90;;;;;;5069038;28;20459;-51
2022/11/30 03:45:56;;;;;;;74.97;49.30;;;3.60;99.90;;;;;;5080264;28;20538;-51
2022/11/30 03:48:22;;;;;;;78.33;47.93;;;3.50;99.90;;;;;;5072549;28;20464;-52
2022/11/30 03:50:49;;;;;;;77.77;49.20;;;3.60;99.90;;;;;;5075070;28;20441;-51
2022/11/30 03:53:18;;;;;;;68.33;46.53;;;3.60;99.90;;;;;;5079509;28;21258;-51
2022/11/30 03:55:44;;;;;;;75.87;48.20;;;3.60;99.90;;;;;;5067312;28;21024;-51
2022/11/30 03:58:11;;;;;;;79.10;48.57;;;3.60;99.90;;;;;;5074252;28;20470;-51
2022/11/30 04:00:38;;;;;;;77.30;50.20;;;3.60;99.90;;;;;;5068519;28;20457;-52
2022/11/30 04:03:05;;;;;;;76.00;48.93;;;3.60;99.90;;;;;;5084127;28;20460;-51
2022/11/30 04:05:31;;;;;;;76.17;47.37;;;3.50;99.90;;;;;;5082786;28;20525;-51
2022/11/30 04:07:58;;;;;;;75.90;46.93;;;3.50;99.90;;;;;;5075935;28;20461;-51
2022/11/30 04:10:26;;;;;;;84.20;50.10;;;3.50;99.90;;;;;;5074222;28;20514;-52
2022/11/30 04:12:53;;;;;;;76.97;47.90;;;3.50;99.90;;;;;;5066377;28;20462;-52
2022/11/30 04:15:19;;;;;;;75.57;46.70;;;3.50;99.90;;;;;;5067860;28;20902;-51
2022/11/30 04:17:46;;;;;;;79.80;50.60;;;3.50;99.90;;;;;;5074132;28;20494;-52
2022/11/30 04:20:13;;;;;;;77.50;50.80;;;3.50;99.90;;;;;;5076309;28;20453;-51
2022/11/30 04:22:39;;;;;;;79.83;46.80;;;3.50;99.90;;;;;;5070311;28;20514;-52
2022/11/30 04:25:07;;;;;;;69.40;45.97;;;3.50;99.90;;;;;;5070185;28;20477;-52
2022/11/30 04:27:35;;;;;;;71.17;46.40;;;3.50;99.90;;;;;;5064086;28;20951;-51
2022/11/30 04:30:01;;;;;;;80.00;48.03;;;3.50;99.90;;;;;;5068546;28;20461;-51
2022/11/30 04:32:28;;;;;;;75.17;47.57;;;3.50;99.90;;;;;;5071328;28;20464;-51
2022/11/30 04:34:54;;;;;;;79.83;48.13;;;3.50;99.90;;;;;;5071962;28;20485;-50
2022/11/30 04:37:21;;;;;;;77.97;49.50;;;3.50;99.90;;;;;;5080572;28;20937;-51
2022/11/30 04:39:48;;;;;;;77.97;49.10;;;3.50;99.90;;;;;;5068721;28;20460;-50
2022/11/30 04:42:14;;;;;;;77.70;46.97;;;3.50;99.90;;;;;;5067524;28;20457;-51
2022/11/30 04:44:42;;;;;;;72.40;47.93;;;3.50;99.90;;;;;;5067305;28;20493;-51
2022/11/30 04:47:09;;;;;;;72.83;49.20;;;3.50;99.90;;;;;;5063412;28;20461;-51
2022/11/30 04:49:35;;;;;;;70.57;46.80;;;3.50;99.90;;;;;;5071416;28;21024;-50
2022/11/30 04:52:02;;;;;;;74.43;47.73;;;3.50;99.90;;;;;;5070726;28;20508;-51
2022/11/30 04:54:29;;;;;;;77.13;47.97;;;3.50;99.90;;;;;;5072146;28;20904;-51
2022/11/30 04:56:55;;;;;;;66.60;45.33;;;3.50;99.90;;;;;;5074228;28;20539;-51
2022/11/30 04:59:22;;;;;;;79.33;48.90;;;3.40;99.90;;;;;;5067607;28;20510;-51
2022/11/30 05:01:50;;;;;;;83.97;47.93;;;3.50;99.90;;;;;;5110661;22;20540;-51
2022/11/30 05:04:16;;;;;;;75.10;46.50;;;3.40;99.90;;;;;;5107750;28;20511;-52
2022/11/30 05:06:43;;;;;;;79.63;49.80;;;3.50;99.90;;;;;;5098962;28;20471;-52
2022/11/30 05:09:10;;;;;;;75.57;46.80;;;3.50;99.90;;;;;;5112545;28;20805;-51
2022/11/30 05:11:36;;;;;;;81.90;47.40;;;3.40;99.90;;;;;;5108889;28;20506;-51
2022/11/30 05:14:03;;;;;;;76.77;48.70;;;3.50;99.90;;;;;;5096100;28;20479;-51
2022/11/30 05:16:29;;;;;;;79.30;47.90;;;3.50;99.90;;;;;;5101380;28;20455;-51
2022/11/30 05:18:57;;;;;;;76.07;47.00;;;3.50;99.90;;;;;;5106567;28;20459;-51
2022/11/30 05:21:24;;;;;;;68.20;45.13;;;3.40;99.90;;;;;;5101548;28;20513;-51
2022/11/30 05:23:51;;;;;;;74.40;45.03;;;3.50;99.90;;;;;;5099873;28;21021;-52
2022/11/30 05:26:17;;;;;;;77.90;47.57;;;3.50;99.90;;;;;;5098638;28;20468;-51
2022/11/30 05:28:44;;;;;;;75.03;46.67;;;3.60;99.90;;;;;;5099859;27;20882;-51
2022/11/30 05:31:11;;;;;;;85.43;47.37;;;3.60;99.90;;;;;;5106987;28;20556;-51
2022/11/30 05:33:37;;;;;;;79.57;50.03;;;3.60;99.90;;;;;;5112788;27;20878;-49
2022/11/30 05:36:06;;;;;;;76.50;48.93;;;3.70;99.90;;;;;;5107879;27;20470;-50
2022/11/30 05:38:32;;;;;;;76.33;47.90;;;3.60;99.90;;;;;;5106436;28;20455;-51
2022/11/30 05:41:00;;;;;;;83.93;48.67;;;3.60;99.90;;;;;;5097005;28;20487;-51
2022/11/30 05:43:27;;;;;;;77.07;48.77;;;3.60;99.90;;;;;;5108968;27;20455;-51
2022/11/30 05:46:01;;;;;;;79.37;47.00;;;3.60;99.90;;;;;;5104636;28;21020;-51
2022/11/30 05:48:28;;;;;;;73.53;46.50;;;3.60;99.90;;;;;;5099389;28;20513;-50
2022/11/30 05:50:55;;;;;;;75.63;46.57;;;3.50;99.90;;;;;;5111497;27;20483;-50
2022/11/30 05:53:23;;;;;;;69.10;45.97;;;3.50;99.90;;;;;;5108774;28;20459;-51
2022/11/30 05:55:50;;;;;;;88.67;51.47;;;3.50;99.90;;;;;;5105792;28;20479;-51
2022/11/30 05:58:16;;;;;;;73.10;46.77;;;3.50;99.90;;;;;;5101719;28;20484;-50
2022/11/30 06:00:43;;;;;;;75.97;47.37;;;3.50;99.90;;;;;;5102280;28;20491;-50
2022/11/30 06:03:09;;;;;;;76.10;46.10;;;3.60;99.90;;;;;;5108261;28;20462;-51
2022/11/30 06:05:36;;;;;;;70.43;46.37;;;3.60;99.90;;;;;;5108917;28;20944;-50
2022/11/30 06:08:03;;;;;;;74.33;47.93;;;3.60;99.90;;;;;;5100648;28;20520;-50
2022/11/30 06:10:30;;;;;;;79.17;45.40;;;3.60;99.90;;;;;;5101679;28;20490;-51
2022/11/30 06:12:57;;;;;;;77.53;45.93;;;3.60;99.90;;;;;;5100178;28;20471;-50
2022/11/30 06:15:24;;;;;;;76.90;46.03;;;3.60;99.90;;;;;;5107754;27;20956;-50
2022/11/30 06:17:50;;;;;;;70.70;45.30;;;3.60;99.90;;;;;;5111305;27;20476;-50
2022/11/30 06:20:17;;;;;;;73.80;45.00;;;3.50;99.90;;;;;;5121230;27;20472;-50
2022/11/30 06:22:45;;;;;;;79.10;47.43;;;3.60;99.90;;;;;;5110830;27;20479;-50
2022/11/30 06:25:13;;;;;;;79.10;48.90;;;3.60;99.90;;;;;;5117517;27;20481;-52
2022/11/30 06:27:42;;;;;;;72.17;46.47;;;3.60;99.90;;;;;;5120018;28;20457;-51
2022/11/30 06:30:10;;;;;;;72.97;46.37;;;3.60;99.90;;;;;;5113661;28;20478;-51
2022/11/30 06:32:36;;;;;;;78.17;45.73;;;3.60;99.90;;;;;;5106932;28;20479;-51
2022/11/30 06:35:04;;;;;;;74.80;46.23;;;3.50;99.90;;;;;;5101213;28;20478;-50
2022/11/30 06:37:34;;;;;;;77.57;45.97;;;3.60;99.90;;;;;;5117304;28;20462;-51
2022/11/30 06:40:01;;;;;;;72.43;45.80;;;3.60;99.90;;;;;;5117847;28;20454;-50
2022/11/30 06:42:28;;;;;;;75.70;48.20;;;3.60;99.90;;;;;;5110900;28;20529;-51
2022/11/30 06:44:57;;;;;;;82.83;47.33;;;3.50;99.90;;;;;;5107107;28;20455;-51
2022/11/30 06:47:23;;;;;;;73.50;46.47;;;3.60;99.90;;;;;;5121375;28;20459;-51
2022/11/30 06:49:50;;;;;;;78.47;47.83;;;3.50;99.90;;;;;;5113838;28;20463;-50
2022/11/30 06:52:16;;;;;;;68.17;43.73;;;3.60;99.90;;;;;;5109561;28;20487;-50
2022/11/30 06:54:43;;;;;;;74.77;46.37;;;3.60;99.90;;;;;;5118644;28;20479;-51
2022/11/30 06:57:10;;;;;;;77.53;46.40;;;3.50;99.90;;;;;;5108864;28;20504;-50
2022/11/30 06:59:41;;;;;;;74.57;46.73;;;3.60;99.90;;;;;;5119786;27;20459;-50
2022/11/30 07:02:11;;;;;;;74.17;46.57;;;3.60;99.90;;;;;;5121927;27;20481;-51
2022/11/30 07:04:38;;;;;;;75.80;47.63;;;3.60;99.90;;;;;;5118638;27;21003;-51
2022/11/30 07:07:04;;;;;;;81.63;49.80;;;3.70;99.90;;;;;;5113923;28;20458;-50
2022/11/30 07:09:31;;;;;;;75.67;47.07;;;3.70;99.90;;;;;;5112077;28;20478;-54
2022/11/30 07:11:58;;;;;;;79.83;47.53;;;3.70;99.90;;;;;;5107619;27;20859;-51
2022/11/30 07:14:24;;;;;;;72.47;45.53;;;3.70;99.90;;;;;;5110483;27;20824;-51
2022/11/30 07:16:51;;;;;;;78.40;48.30;;;3.70;99.90;;;;;;5116204;27;20453;-50
2022/11/30 07:19:19;;;;;;;80.63;49.53;;;3.70;99.90;;;;;;5124889;27;20959;-50
2022/11/30 07:21:45;;;;;;;88.13;52.37;;;3.70;99.90;;;;;;5112345;27;20482;-51
2022/11/30 07:26:56;;;;;;;78.90;46.93;;;3.70;99.90;;;;;;5123027;27;20524;-51
2022/11/30 07:29:23;;;;;;;81.77;50.50;;;3.70;99.90;;;;;;5112573;27;20523;-50
2022/11/30 07:31:51;;;;;;;74.50;47.30;;;3.70;99.90;;;;;;5116157;27;20482;-51
2022/11/30 07:34:19;;;;;;;79.60;47.87;;;3.70;99.90;;;;;;5106841;27;20469;-51
2022/11/30 07:36:46;;;;;;;77.90;46.47;;;3.70;99.90;;;;;;5109357;27;20463;-51
2022/11/30 07:39:13;;;;;;;74.00;47.30;;;3.70;99.90;;;;;;5122514;27;20508;-50
2022/11/30 07:41:40;;;;;;;77.03;47.50;;;3.70;99.90;;;;;;5115157;27;20478;-52
2022/11/30 07:44:08;;;;;;;74.40;46.90;;;3.70;99.90;;;;;;5129978;27;20537;-53
2022/11/30 07:46:34;;;;;;;75.07;47.60;;;3.70;99.90;;;;;;5113424;28;20517;-53
2022/11/30 07:49:01;;;;;;;75.03;45.10;;;3.60;99.90;;;;;;5117211;27;20497;-51
2022/11/30 07:51:29;;;;;;;77.13;45.93;;;3.60;99.90;;;;;;5110006;27;20486;-51
2022/11/30 07:53:57;;;;;;;72.77;46.10;;;3.70;99.90;;;;;;5120564;27;21001;-52
2022/11/30 07:56:24;;;;;;;69.07;44.03;;;3.70;99.90;;;;;;5113655;28;21167;-52
2022/11/30 07:58:54;;;;;;;79.40;47.00;;;3.60;99.90;;;;;;5113312;28;20467;-51
2022/11/30 08:01:22;;;;;;;72.13;45.50;;;3.70;99.90;;;;;;5121573;27;20506;-52
2022/11/30 08:03:49;;;;;;;73.67;47.20;;;3.70;99.90;;;;;;5111275;27;20269;-52
2022/11/30 08:06:19;;;;;;;74.53;46.60;;;3.70;99.90;;;;;;5110472;27;20461;-52
2022/11/30 08:08:48;;;;;;;69.40;45.27;;;3.70;99.90;;;;;;5118783;27;20459;-51
2022/11/30 08:11:17;;;;;;;81.97;49.80;;;3.70;99.90;;;;;;5115533;27;20903;-52
2022/11/30 08:13:44;;;;;;;75.23;46.37;;;3.70;99.90;;;;;;5115910;27;20504;-52
2022/11/30 08:16:13;;;;;;;69.00;44.57;;;3.80;99.90;;;;;;5113123;27;20542;-51
2022/11/30 08:18:40;;;;;;;80.67;47.23;;;3.70;95.50;;;;;;5120672;27;20458;-52
2022/11/30 08:21:09;;;;;;;81.03;48.53;;;3.70;88.30;;;;;;5125237;27;20897;-52
2022/11/30 08:23:38;;;;;;;68.60;44.07;;;3.80;99.90;;;;;;5130352;27;20458;-53
2022/11/30 08:26:08;;;;;;;71.20;47.73;;;3.80;99.90;;;;;;5117828;27;20499;-51
2022/11/30 08:28:35;;;;;;;81.00;46.43;;;3.70;73.50;;;;;;5117431;27;20463;-51
2022/11/30 08:31:04;;;;;;;82.67;49.27;;;3.80;99.90;;;;;;5119918;27;20840;-51
2022/11/30 08:33:32;;;;;;;72.53;45.40;;;3.80;99.90;;;;;;5111358;28;20472;-52
2022/11/30 08:36:06;;;;;;;69.70;43.70;;;3.70;20.50;;;;;;5119081;27;20482;-52
2022/11/30 08:38:33;;;;;;;71.47;44.83;;;3.70;21.20;;;;;;5103118;28;20929;-52
2022/11/30 08:40:59;;;;;;;70.53;44.33;;;3.80;99.90;;;;;;5118235;27;20483;-52
2022/11/30 08:43:28;;;;;;;70.30;45.47;;;3.90;82.70;;;;;;5113280;28;20489;-51
2022/11/30 08:45:54;;;;;;;73.00;44.07;;;3.90;25.40;;;;;;5131765;27;20439;-53
2022/11/30 08:48:21;;;;;;;72.03;44.90;;;3.90;23.10;;;;;;5124423;27;20793;-51
2022/11/30 08:50:48;;;;;;;66.03;42.83;;;3.90;23.30;;;;;;5111199;28;20995;-52
2022/11/30 08:53:15;;;;;;;69.37;44.00;;;4.00;22.70;;;;;;5123181;27;20503;-53
2022/11/30 08:55:41;;;;;;;71.13;43.27;;;4.00;25.80;;;;;;5123362;27;20475;-51
2022/11/30 08:58:08;;;;;;;68.87;41.73;;;3.90;30.40;;;;;;5127843;27;21049;-53
2022/11/30 09:00:36;;;;;;;68.13;42.60;;;3.90;27.90;;;;;;5122575;27;20508;-52
2022/11/30 09:03:03;;;;;;;68.67;41.87;;;4.00;24.20;;;;;;5109485;28;20504;-52
2022/11/30 09:05:29;;;;;;;72.77;44.03;;;4.00;30.20;;;;;;5116927;27;20440;-51
2022/11/30 09:07:56;;;;;;;67.17;42.90;;;4.00;32.00;;;;;;5111384;27;21222;-52
2022/11/30 09:10:22;;;;;;;66.87;44.90;;;3.90;31.20;;;;;;5118415;27;20490;-50
2022/11/30 09:12:49;;;;;;;71.17;42.53;;;4.00;31.90;;;;;;5132163;27;20864;-54
2022/11/30 09:15:16;;;;;;;66.97;41.20;;;4.10;28.10;;;;;;5099025;27;20995;-54
2022/11/30 09:17:44;;;;;;;68.57;39.70;;;4.10;26.80;;;;;;5119058;27;20458;-53
2022/11/30 09:20:11;;;;;;;67.13;42.50;;;4.20;31.10;;;;;;5112125;27;20459;-53
2022/11/30 09:22:38;;;;;;;65.30;43.50;;;4.20;29.20;;;;;;5111323;27;21040;-54
2022/11/30 09:25:05;;;;;;;74.50;43.43;;;4.20;34.80;;;;;;5122949;27;20518;-54
2022/11/30 09:27:32;;;;;;;67.87;42.03;;;4.20;35.10;;;;;;5111069;28;20968;-53
2022/11/30 09:29:59;;;;;;;71.37;43.77;;;4.30;28.90;;;;;;5110449;27;20456;-54
2022/11/30 09:32:27;;;;;;;66.90;42.50;;;4.30;28.10;;;;;;5112261;28;20471;-50
2022/11/30 09:34:55;;;;;;;65.00;43.40;;;4.40;33.00;;;;;;5095030;28;20525;-51
2022/11/30 09:37:22;;;;;;;64.27;42.37;;;4.30;33.50;;;;;;5092727;28;20444;-51
2022/11/30 09:39:49;;;;;;;64.93;42.93;;;4.30;37.30;;;;;;5110143;28;20459;-51
2022/11/30 09:42:43;;;;;;;62.57;42.00;;;4.40;39.30;;;;;;5112116;27;21008;-50
2022/11/30 09:45:16;;;;;;;63.10;41.20;;;4.40;38.90;;;;;;5114466;27;21135;-51
2022/11/30 09:48:03;;;;;;;72.73;45.30;;;4.30;45.10;;;;;;5116406;27;20449;-51
2022/11/30 09:50:35;;;;;;;70.93;44.57;;;4.30;40.20;;;;;;5102562;27;20501;-50
2022/11/30 09:53:06;;;;;;;68.17;44.47;;;4.40;41.30;;;;;;5110826;28;21032;-50
2022/11/30 09:55:38;;;;;;;69.27;43.60;;;4.50;47.50;;;;;;5123157;27;21011;-51
2022/11/30 09:58:06;;;;;;;66.73;43.37;;;4.60;45.00;;;;;;5122571;27;20443;-51
2022/11/30 10:00:35;;;;;;;67.23;42.00;;;4.50;56.90;;;;;;5111863;27;20455;-51
2022/11/30 10:03:04;;;;;;;71.90;44.43;;;4.60;46.40;;;;;;5106689;28;20979;-50
2022/11/30 10:05:45;;;;;;;68.10;44.23;;;4.60;46.30;;;;;;5119961;27;20458;-50
2022/11/30 10:08:29;;;;;;;63.10;41.57;;;4.60;58.30;;;;;;5129451;27;20438;-51
2022/11/30 10:11:14;;;;;;;74.63;44.90;;;4.50;53.50;;;;;;5106703;28;20471;-51
2022/11/30 10:13:53;;;;;;;67.70;42.73;;;4.60;53.50;;;;;;5107008;28;20438;-55
2022/11/30 10:16:27;;;;;;;65.93;43.03;;;4.60;56.90;;;;;;5119690;27;20482;-54
2022/11/30 10:19:04;;;;;;;83.60;43.30;;;4.70;48.70;;;;;;5119547;27;20508;-55
2022/11/30 10:21:48;;;;;;;67.10;40.50;;;4.70;49.30;;;;;;5109270;28;21115;-54
2022/11/30 10:24:29;;;;;;;65.80;42.20;;;4.80;50.70;;;;;;5116191;27;20438;-55
2022/11/30 10:26:58;;;;;;;65.50;43.90;;;4.80;56.70;;;;;;5124436;27;20933;-55
2022/11/30 10:29:31;;;;;;;69.20;43.20;;;4.70;68.60;;;;;;5114217;28;20516;-56
2022/11/30 10:32:00;;;;;;;67.90;41.57;;;4.60;64.50;;;;;;5109120;28;20529;-54
2022/11/30 10:34:32;;;;;;;70.10;41.80;;;4.70;65.20;;;;;;5116169;27;20445;-54
2022/11/30 10:37:04;;;;;;;69.33;42.17;;;4.70;62.20;;;;;;5118602;27;20474;-54
2022/11/30 10:39:36;;;;;;;67.47;41.03;;;4.60;66.30;;;;;;5101526;28;20463;-54
2022/11/30 10:42:09;;;;;;;68.33;42.63;;;4.70;63.70;;;;;;5121670;27;20543;-55
2022/11/30 10:44:40;;;;;;;65.17;42.10;;;4.70;66.30;;;;;;5115132;27;20516;-55
2022/11/30 10:47:14;;;;;;;68.77;45.53;;;4.80;61.50;;;;;;5128154;27;20462;-54
2022/11/30 10:49:47;;;;;;;67.33;42.33;;;4.90;62.60;;;;;;5119119;27;20462;-55
2022/11/30 10:52:18;;;;;;;71.43;43.80;;;4.90;64.80;;;;;;5110041;27;20485;-54
2022/11/30 10:54:45;;;;;;;62.17;40.40;;;4.90;70.30;;;;;;5124748;27;20518;-55
2022/11/30 10:57:13;;;;;;;64.63;42.10;;;4.90;73.50;;;;;;5119768;27;20902;-55
2022/11/30 10:59:43;;;;;;;60.83;39.77;;;4.90;72.60;;;;;;5127932;27;20463;-55
2022/11/30 11:02:34;;;;;;;64.40;41.90;;;4.90;72.90;;;;;;5112009;27;20482;-51
2022/11/30 11:05:19;;;;;;;80.33;45.70;;;4.90;73.60;;;;;;5127205;27;20446;-51
2022/11/30 11:07:55;;;;;;;67.73;42.10;;;4.90;68.40;;;;;;5103750;28;20443;-51
2022/11/30 11:10:27;;;;;;;68.53;41.53;;;4.90;70.40;;;;;;5110050;27;20556;-50
2022/11/30 11:12:54;;;;;;;67.53;42.80;;;4.90;69.00;;;;;;5119364;27;20539;-50
2022/11/30 11:15:24;;;;;;;66.83;42.97;;;5.00;74.70;;;;;;5125310;27;20499;-50
2022/11/30 11:17:51;;;;;;;79.73;45.23;;;5.00;72.10;;;;;;5106438;27;21024;-51
2022/11/30 11:20:33;;;;;;;61.50;39.03;;;4.90;82.90;;;;;;5121995;27;20466;-51
2022/11/30 11:23:03;;;;;;;64.63;41.73;;;4.90;76.20;;;;;;5117767;27;20820;-52
2022/11/30 11:25:34;;;;;;;62.90;42.43;;;4.80;84.20;;;;;;5118801;27;20489;-51
2022/11/30 11:28:07;;;;;;;64.03;41.07;;;4.80;84.50;;;;;;5120634;27;20454;-52
2022/11/30 11:30:36;;;;;;;82.30;43.23;;;4.90;79.00;;;;;;5112676;28;20443;-51
2022/11/30 11:33:05;;;;;;;64.53;42.53;;;5.00;73.90;;;;;;5113014;27;20452;-52
2022/11/30 11:35:35;;;;;;;63.47;40.80;;;5.00;76.90;;;;;;5119722;27;20453;-50
2022/11/30 11:38:04;;;;;;;62.07;41.50;;;5.00;87.30;;;;;;5129513;27;20546;-50
2022/11/30 11:40:30;;;;;;;68.50;43.70;;;5.00;85.60;;;;;;5121313;27;20443;-51
2022/11/30 11:42:57;;;;;;;74.90;44.10;;;5.10;82.90;;;;;;5113666;27;20484;-50
2022/11/30 11:45:26;;;;;;;69.27;41.50;;;5.20;82.30;;;;;;5109053;27;20463;-51
2022/11/30 11:47:58;;;;;;;57.83;39.27;;;5.20;78.70;;;;;;5109159;27;20463;-50
2022/11/30 11:50:29;;;;;;;65.97;39.30;;;5.20;80.80;;;;;;5121566;27;20496;-50
2022/11/30 11:53:21;;;;;;;61.40;40.40;;;5.30;80.00;;;;;;5105061;28;20487;-51
2022/11/30 11:55:50;;;;;;;67.80;41.70;;;5.20;84.00;;;;;;5122248;27;20511;-51
2022/11/30 11:58:22;;;;;;;86.90;46.30;;;5.30;81.10;;;;;;5106619;27;20491;-52
2022/11/30 12:00:49;;;;;;;72.03;44.47;;;5.20;87.40;;;;;;5113139;27;20489;-50
2022/11/30 12:03:26;;;;;;;67.00;41.27;;;5.10;82.30;;;;;;5112225;27;20507;-51
2022/11/30 12:05:58;;;;;;;76.83;46.43;;;5.00;83.80;;;;;;5119005;27;20508;-50
2022/11/30 12:08:35;;;;;;;76.83;46.73;;;5.00;73.80;;;;;;5112037;27;20466;-51
2022/11/30 12:11:05;;;;;;;73.80;46.10;;;5.00;77.40;;;;;;5112475;28;20471;-52
2022/11/30 12:13:33;;;;;;;73.70;44.50;;;5.00;72.20;;;;;;5117070;27;20462;-52
2022/11/30 12:16:15;;;;;;;72.47;42.77;;;5.10;78.30;;;;;;5123249;27;20471;-52
2022/11/30 12:18:47;;;;;;;70.33;44.30;;;5.00;76.60;;;;;;5100044;28;20477;-51
2022/11/30 12:21:16;;;;;;;73.87;46.80;;;5.10;75.50;;;;;;5114061;27;20459;-51
2022/11/30 12:23:58;;;;;;;78.67;47.43;;;5.00;74.80;;;;;;5103987;28;20456;-51
2022/11/30 12:26:34;;;;;;;81.87;47.87;;;5.00;74.60;;;;;;5106253;27;20454;-54
2022/11/30 12:29:18;;;;;;;74.27;46.90;;;4.90;73.30;;;;;;5113442;27;21216;-54
2022/11/30 12:31:58;;;;;;;76.37;47.20;;;4.80;72.20;;;;;;5117613;27;20483;-53
2022/11/30 12:34:39;;;;;;;74.07;46.90;;;4.80;73.50;;;;;;5106237;28;20454;-54
2022/11/30 12:37:17;;;;;;;69.43;44.70;;;4.80;68.00;;;;;;5112307;27;20478;-54
2022/11/30 12:39:56;;;;;;;89.80;46.57;;;4.70;69.90;;;;;;5109681;28;20458;-55
2022/11/30 12:42:31;;;;;;;77.33;46.67;;;4.80;66.60;;;;;;5112200;28;21026;-54
2022/11/30 12:45:04;;;;;;;71.97;45.20;;;4.80;66.70;;;;;;5131283;27;20481;-54
2022/11/30 12:47:45;;;;;;;79.63;48.60;;;4.90;63.20;;;;;;5118517;27;20512;-55
2022/11/30 12:50:36;;;;;;;71.50;45.77;;;4.70;65.60;;;;;;5120189;27;20477;-55